createdAt,value
2022-12-10T00:01:46.748Z,84.39
2022-12-10T00:06:53.674Z,84.44
2022-12-10T00:12:00.752Z,84.39
2022-12-10T00:17:12.810Z,84.40
2022-12-10T00:22:20.476Z,84.49
2022-12-10T00:27:27.570Z,84.54
2022-12-10T00:32:35.983Z,84.47
2022-12-10T00:37:43.057Z,84.43
2022-12-10T00:42:50.071Z,84.37
2022-12-10T00:47:57.291Z,84.40
2022-12-10T00:53:03.459Z,84.44
2022-12-10T00:58:11.074Z,84.45
2022-12-10T01:03:18.264Z,84.39
2022-12-10T01:08:25.895Z,84.44
2022-12-10T01:13:33.010Z,84.31
2022-12-10T01:18:41.045Z,84.27
2022-12-10T01:23:47.753Z,84.30
2022-12-10T01:28:56.170Z,84.38
2022-12-10T01:34:04.109Z,84.20
2022-12-10T01:39:14.152Z,84.29
2022-12-10T01:45:10.652Z,84.32
2022-12-10T01:50:17.824Z,84.34
2022-12-10T01:55:48.862Z,84.19
2022-12-10T02:01:07.709Z,84.22
2022-12-10T02:06:27.559Z,84.42
2022-12-10T02:11:43.981Z,84.41
2022-12-10T02:17:01.187Z,84.29
2022-12-10T02:22:10.263Z,84.27
2022-12-10T02:27:24.021Z,84.31
2022-12-10T02:32:37.304Z,84.28
2022-12-10T02:37:50.986Z,84.31
2022-12-10T02:42:58.494Z,84.21
2022-12-10T02:48:07.979Z,84.22
2022-12-10T02:53:19.823Z,84.29
2022-12-10T02:58:34.785Z,84.17
2022-12-10T03:03:49.904Z,84.14
2022-12-10T03:09:04.196Z,84.07
2022-12-10T03:14:16.379Z,84.10
2022-12-10T03:19:26.654Z,84.17
2022-12-10T03:24:35.387Z,84.16
2022-12-10T03:29:49.874Z,84.01
2022-12-10T03:34:59.766Z,83.99
2022-12-10T03:40:10.964Z,84.11
2022-12-10T03:45:18.638Z,84.01
2022-12-10T03:50:25.754Z,83.98
2022-12-10T03:55:34.038Z,84.08
2022-12-10T04:00:39.551Z,84.19
2022-12-10T04:05:46.571Z,84.05
2022-12-10T04:10:53.540Z,84.13
2022-12-10T04:16:24.678Z,84.02
2022-12-10T04:21:52.152Z,83.93
2022-12-10T04:27:01.754Z,83.98
2022-12-10T04:32:09.620Z,84.22
2022-12-10T04:37:17.210Z,84.25
2022-12-10T04:42:25.166Z,84.25
2022-12-10T04:47:30.644Z,84.11
2022-12-10T04:52:37.761Z,83.94
2022-12-10T04:57:44.914Z,84.08
2022-12-10T05:02:53.212Z,84.01
2022-12-10T05:08:00.408Z,84.21
2022-12-10T05:13:07.382Z,84.17
2022-12-10T05:18:14.487Z,84.21
2022-12-10T05:23:31.136Z,84.16
2022-12-10T05:28:39.450Z,84.03
2022-12-10T05:33:46.672Z,84.10
2022-12-10T05:38:55.417Z,84.10
2022-12-10T05:44:02.891Z,84.10
2022-12-10T05:49:11.197Z,84.24
2022-12-10T05:54:18.198Z,84.22
2022-12-10T05:59:31.373Z,84.09
2022-12-10T06:04:38.779Z,84.02
2022-12-10T06:09:46.021Z,83.99
2022-12-10T06:14:53.113Z,83.92
2022-12-10T06:20:00.336Z,83.88
2022-12-10T06:25:08.486Z,83.87
2022-12-10T06:30:15.974Z,83.83
2022-12-10T06:35:24.095Z,83.83
2022-12-10T06:40:31.866Z,83.81
2022-12-10T06:45:42.108Z,83.78
2022-12-10T06:50:49.478Z,83.79
2022-12-10T06:55:56.485Z,83.75
2022-12-10T07:01:08.577Z,83.72
2022-12-10T07:06:16.124Z,83.91
2022-12-10T07:11:24.915Z,83.90
2022-12-10T07:16:34.075Z,83.97
2022-12-10T07:21:44.041Z,83.84
2022-12-10T07:26:51.368Z,83.97
2022-12-10T07:31:58.391Z,84.06
2022-12-10T07:37:05.972Z,84.05
2022-12-10T07:42:13.770Z,84.02
2022-12-10T07:47:21.465Z,83.90
2022-12-10T07:52:31.411Z,83.89
2022-12-10T07:57:38.619Z,83.85
2022-12-10T08:02:45.913Z,83.75
2022-12-10T08:07:58.597Z,83.84
2022-12-10T08:13:08.629Z,83.88
2022-12-10T08:18:15.679Z,83.92
2022-12-10T08:23:22.770Z,83.71
2022-12-10T08:28:29.982Z,83.82
2022-12-10T08:33:38.606Z,83.71
2022-12-10T08:38:46.567Z,83.91
2022-12-10T08:43:55.923Z,83.90
2022-12-10T08:49:03.057Z,83.93
2022-12-10T08:54:11.342Z,83.76
2022-12-10T08:59:18.480Z,83.81
2022-12-10T09:04:25.727Z,83.64
2022-12-10T09:09:33.711Z,83.74
2022-12-10T09:14:41.656Z,83.82
2022-12-10T09:19:48.707Z,83.72
2022-12-10T09:24:55.758Z,83.76
2022-12-10T09:30:04.311Z,83.70
2022-12-10T09:35:12.969Z,83.47
2022-12-10T09:40:28.091Z,83.49
2022-12-10T09:45:42.872Z,83.52
2022-12-10T09:50:55.802Z,83.43
2022-12-10T09:56:03.120Z,83.42
2022-12-10T10:01:14.800Z,83.40
2022-12-10T10:06:23.689Z,83.48
2022-12-10T10:11:37.730Z,83.40
2022-12-10T10:16:55.121Z,83.44
2022-12-10T10:22:03.222Z,83.20
2022-12-10T10:27:17.868Z,83.27
2022-12-10T10:32:27.055Z,83.24
2022-12-10T10:37:43.548Z,83.16
2022-12-10T10:42:50.977Z,83.05
2022-12-10T10:48:08.750Z,83.06
2022-12-10T10:53:42.802Z,82.93
2022-12-10T10:58:58.197Z,82.93
2022-12-10T11:04:05.537Z,82.90
2022-12-10T11:09:23.592Z,82.83
2022-12-10T11:14:39.805Z,82.82
2022-12-10T11:19:56.004Z,83.01
2022-12-10T11:25:03.985Z,82.90
2022-12-10T11:30:12.313Z,82.99
2022-12-10T11:35:21.054Z,82.90
2022-12-10T11:40:35.327Z,82.93
2022-12-10T11:45:54.760Z,82.71
2022-12-10T11:51:06.047Z,82.63
2022-12-10T11:56:23.220Z,82.60
2022-12-10T12:01:40.655Z,82.52
2022-12-10T12:07:06.494Z,82.55
2022-12-10T12:12:28.602Z,82.48
2022-12-10T12:17:40.931Z,82.43
2022-12-10T12:22:53.662Z,82.41
2022-12-10T12:28:07.498Z,82.53
2022-12-10T12:33:22.814Z,82.50
2022-12-10T12:38:37.976Z,82.57
2022-12-10T12:43:53.950Z,82.46
2022-12-10T12:49:13.837Z,82.36
2022-12-10T12:54:21.017Z,82.43
2022-12-10T12:59:39.081Z,82.27
2022-12-10T13:04:46.982Z,82.43
2022-12-10T13:09:54.069Z,82.54
2022-12-10T13:15:21.460Z,82.58
2022-12-10T13:20:37.673Z,82.49
2022-12-10T13:25:59.087Z,82.43
2022-12-10T13:31:39.495Z,82.30
2022-12-10T13:37:17.225Z,82.28
2022-12-10T13:42:51.659Z,82.31
2022-12-10T13:48:36.050Z,82.29
2022-12-10T13:53:55.663Z,82.27
2022-12-10T13:59:18.628Z,82.30
2022-12-10T14:05:02.784Z,82.40
2022-12-10T14:10:18.412Z,82.36
2022-12-10T14:15:27.684Z,82.17
2022-12-10T14:20:37.177Z,82.15
2022-12-10T14:25:48.966Z,82.13
2022-12-10T14:30:56.408Z,82.18
2022-12-10T14:36:04.579Z,82.03
2022-12-10T14:41:17.733Z,82.18
2022-12-10T14:46:29.469Z,82.16
2022-12-10T14:51:39.255Z,82.02
2022-12-10T14:56:46.459Z,82.19
2022-12-10T15:01:58.052Z,82.01
2022-12-10T15:07:05.937Z,81.93
2022-12-10T15:12:22.626Z,81.85
2022-12-10T15:17:41.087Z,81.89
2022-12-10T15:22:48.422Z,81.94
2022-12-10T15:28:01.399Z,81.91
2022-12-10T15:33:24.508Z,81.91
2022-12-10T15:38:33.841Z,82.01
2022-12-10T15:43:52.304Z,82.13
2022-12-10T15:48:59.297Z,82.17
2022-12-10T15:54:20.753Z,81.87
2022-12-10T15:59:27.761Z,81.79
2022-12-10T16:04:34.857Z,81.75
2022-12-10T16:09:41.855Z,81.81
2022-12-10T16:14:53.766Z,81.79
2022-12-10T16:20:01.795Z,81.71
2022-12-10T16:25:10.689Z,81.70
2022-12-10T16:30:24.377Z,81.72
2022-12-10T16:35:31.650Z,81.70
2022-12-10T16:40:39.794Z,81.59
2022-12-10T16:45:47.845Z,81.65
2022-12-10T16:50:54.433Z,81.57
2022-12-10T16:56:01.459Z,81.65
2022-12-10T17:01:21.827Z,81.53
2022-12-10T17:06:29.817Z,81.56
2022-12-10T17:11:46.653Z,81.60
2022-12-10T17:16:58.704Z,81.62
2022-12-10T17:22:07.095Z,81.77
2022-12-10T17:27:19.372Z,81.59
2022-12-10T17:32:26.852Z,81.51
2022-12-10T17:37:36.033Z,81.50
2022-12-10T17:42:43.167Z,81.53
2022-12-10T17:47:50.248Z,81.34
2022-12-10T17:52:59.712Z,81.43
2022-12-10T17:58:06.796Z,81.51
2022-12-10T18:03:13.953Z,81.38
2022-12-10T18:08:24.003Z,81.44
2022-12-10T18:13:31.318Z,81.48
2022-12-10T18:18:38.270Z,81.44
2022-12-10T18:23:45.286Z,81.62
2022-12-10T18:28:55.663Z,81.55
2022-12-10T18:34:05.912Z,81.27
2022-12-10T18:39:20.158Z,81.29
2022-12-10T18:44:29.531Z,81.24
2022-12-10T18:49:37.089Z,81.29
2022-12-10T18:54:44.241Z,81.15
2022-12-10T18:59:51.306Z,81.25
2022-12-10T19:04:58.445Z,81.32
2022-12-10T19:10:06.710Z,81.33
2022-12-10T19:15:16.253Z,81.28
2022-12-10T19:20:25.171Z,81.33
2022-12-10T19:25:32.471Z,81.17
2022-12-10T19:30:39.951Z,81.07
2022-12-10T19:35:47.418Z,81.13
2022-12-10T19:40:54.700Z,81.09
2022-12-10T19:46:01.828Z,81.07
2022-12-10T19:51:10.314Z,81.05
2022-12-10T19:56:25.988Z,81.00
2022-12-10T20:01:33.130Z,81.06
2022-12-10T20:06:42.876Z,81.05
2022-12-10T20:11:50.501Z,80.98
2022-12-10T20:16:57.556Z,80.91
2022-12-10T20:22:06.171Z,80.96
2022-12-10T20:27:17.014Z,80.99
2022-12-10T20:32:24.742Z,80.99
2022-12-10T20:37:32.281Z,81.00
2022-12-10T20:42:40.487Z,81.05
2022-12-10T20:47:48.320Z,81.10
2022-12-10T20:52:54.377Z,81.07
2022-12-10T20:58:02.053Z,80.78
2022-12-10T21:03:09.663Z,80.69
2022-12-10T21:08:21.911Z,80.74
2022-12-10T21:13:32.298Z,80.69
2022-12-10T21:18:40.557Z,80.63
2022-12-10T21:23:47.979Z,80.74
2022-12-10T21:28:54.313Z,80.75
2022-12-10T21:34:02.522Z,80.82
2022-12-10T21:39:09.084Z,80.75
2022-12-10T21:44:18.020Z,80.66
2022-12-10T21:49:26.236Z,80.62
2022-12-10T21:54:33.626Z,80.47
2022-12-10T21:59:43.238Z,80.43
2022-12-10T22:04:50.883Z,80.37
2022-12-10T22:09:58.586Z,80.33
2022-12-10T22:15:07.948Z,80.44
2022-12-10T22:20:15.806Z,80.53
2022-12-10T22:25:23.394Z,80.31
2022-12-10T22:30:31.066Z,80.24
2022-12-10T22:35:39.950Z,80.29
2022-12-10T22:40:47.315Z,80.30
2022-12-10T22:45:58.397Z,80.37
2022-12-10T22:51:08.177Z,80.51
2022-12-10T22:56:17.271Z,80.32
2022-12-10T23:01:26.224Z,80.30
2022-12-10T23:06:34.043Z,80.31
2022-12-10T23:12:05.801Z,80.39
2022-12-10T23:17:14.001Z,80.47
2022-12-10T23:22:22.032Z,80.33
2022-12-10T23:27:29.609Z,80.32
2022-12-10T23:32:37.166Z,80.21
2022-12-10T23:37:45.655Z,80.15
2022-12-10T23:42:52.723Z,80.08
2022-12-10T23:47:59.721Z,79.94
2022-12-10T23:53:07.301Z,79.88
2022-12-10T23:58:14.345Z,79.88
